sensor_id;sensor_type;location;lat;lon;timestamp;P1;durP1;ratioP1;P2;durP2;ratioP2
34892;SDS011;21106;52.240;20.902;2023-09-30T00:02:20;13.30;;;7.80;;
34892;SDS011;21106;52.240;20.902;2023-09-30T00:07:26;17.60;;;8.20;;
34892;SDS011;21106;52.240;20.902;2023-09-30T00:12:32;13.10;;;8.00;;
34892;SDS011;21106;52.240;20.902;2023-09-30T00:17:39;14.80;;;8.50;;
34892;SDS011;21106;52.240;20.902;2023-09-30T00:22:45;14.30;;;8.10;;
34892;SDS011;21106;52.240;20.902;2023-09-30T00:27:51;16.00;;;7.50;;
34892;SDS011;21106;52.240;20.902;2023-09-30T00:32:58;15.30;;;8.00;;
34892;SDS011;21106;52.240;20.902;2023-09-30T00:38:04;17.70;;;8.30;;
34892;SDS011;21106;52.240;20.902;2023-09-30T00:43:17;13.10;;;7.80;;
34892;SDS011;21106;52.240;20.902;2023-09-30T00:48:23;13.50;;;7.70;;
34892;SDS011;21106;52.240;20.902;2023-09-30T00:53:29;12.40;;;7.00;;
34892;SDS011;21106;52.240;20.902;2023-09-30T00:58:36;17.70;;;7.20;;
34892;SDS011;21106;52.240;20.902;2023-09-30T01:03:44;12.70;;;7.20;;
34892;SDS011;21106;52.240;20.902;2023-09-30T01:08:51;13.40;;;8.40;;
34892;SDS011;21106;52.240;20.902;2023-09-30T01:13:57;12.90;;;7.30;;
34892;SDS011;21106;52.240;20.902;2023-09-30T01:19:04;20.20;;;7.80;;
34892;SDS011;21106;52.240;20.902;2023-09-30T01:24:10;15.90;;;8.10;;
34892;SDS011;21106;52.240;20.902;2023-09-30T01:29:17;13.60;;;7.90;;
34892;SDS011;21106;52.240;20.902;2023-09-30T01:34:24;15.50;;;8.10;;
34892;SDS011;21106;52.240;20.902;2023-09-30T01:39:30;14.20;;;7.40;;
34892;SDS011;21106;52.240;20.902;2023-09-30T01:44:36;11.70;;;8.00;;
34892;SDS011;21106;52.240;20.902;2023-09-30T01:49:43;19.40;;;8.40;;
34892;SDS011;21106;52.240;20.902;2023-09-30T01:54:49;13.10;;;8.20;;
34892;SDS011;21106;52.240;20.902;2023-09-30T01:59:55;17.90;;;7.50;;
34892;SDS011;21106;52.240;20.902;2023-09-30T02:05:01;17.00;;;8.50;;
34892;SDS011;21106;52.240;20.902;2023-09-30T02:10:07;15.60;;;7.80;;
34892;SDS011;21106;52.240;20.902;2023-09-30T02:15:13;13.30;;;8.20;;
34892;SDS011;21106;52.240;20.902;2023-09-30T02:20:19;19.90;;;8.50;;
34892;SDS011;21106;52.240;20.902;2023-09-30T02:25:27;15.50;;;7.70;;
34892;SDS011;21106;52.240;20.902;2023-09-30T02:30:33;13.30;;;8.10;;
34892;SDS011;21106;52.240;20.902;2023-09-30T02:35:43;12.60;;;8.30;;
34892;SDS011;21106;52.240;20.902;2023-09-30T02:40:49;13.50;;;8.00;;
34892;SDS011;21106;52.240;20.902;2023-09-30T02:45:57;11.90;;;8.20;;
34892;SDS011;21106;52.240;20.902;2023-09-30T02:51:03;15.10;;;7.80;;
34892;SDS011;21106;52.240;20.902;2023-09-30T02:56:09;13.80;;;7.70;;
34892;SDS011;21106;52.240;20.902;2023-09-30T03:01:16;16.10;;;7.40;;
34892;SDS011;21106;52.240;20.902;2023-09-30T03:06:22;12.60;;;7.90;;
34892;SDS011;21106;52.240;20.902;2023-09-30T03:11:29;15.00;;;6.40;;
34892;SDS011;21106;52.240;20.902;2023-09-30T03:16:35;12.40;;;8.40;;
34892;SDS011;21106;52.240;20.902;2023-09-30T03:21:44;16.70;;;7.70;;
34892;SDS011;21106;52.240;20.902;2023-09-30T03:26:49;19.80;;;7.70;;
34892;SDS011;21106;52.240;20.902;2023-09-30T03:31:55;14.30;;;8.10;;
34892;SDS011;21106;52.240;20.902;2023-09-30T03:37:02;18.90;;;8.50;;
34892;SDS011;21106;52.240;20.902;2023-09-30T03:42:08;12.60;;;8.10;;
34892;SDS011;21106;52.240;20.902;2023-09-30T03:47:17;18.60;;;8.60;;
34892;SDS011;21106;52.240;20.902;2023-09-30T03:52:23;18.30;;;8.50;;
34892;SDS011;21106;52.240;20.902;2023-09-30T03:57:31;12.80;;;8.70;;
34892;SDS011;21106;52.240;20.902;2023-09-30T04:02:37;16.30;;;7.60;;
34892;SDS011;21106;52.240;20.902;2023-09-30T04:07:43;10.80;;;7.10;;
34892;SDS011;21106;52.240;20.902;2023-09-30T04:12:50;15.30;;;7.10;;
34892;SDS011;21106;52.240;20.902;2023-09-30T04:17:56;14.70;;;7.30;;
34892;SDS011;21106;52.240;20.902;2023-09-30T04:23:02;12.00;;;6.90;;
34892;SDS011;21106;52.240;20.902;2023-09-30T04:28:08;11.60;;;6.70;;
34892;SDS011;21106;52.240;20.902;2023-09-30T04:33:15;19.10;;;7.20;;
34892;SDS011;21106;52.240;20.902;2023-09-30T04:38:23;12.70;;;7.20;;
34892;SDS011;21106;52.240;20.902;2023-09-30T04:43:28;14.10;;;7.20;;
34892;SDS011;21106;52.240;20.902;2023-09-30T04:48:34;16.00;;;7.40;;
34892;SDS011;21106;52.240;20.902;2023-09-30T04:53:41;18.00;;;7.70;;
34892;SDS011;21106;52.240;20.902;2023-09-30T04:58:46;14.50;;;7.20;;
34892;SDS011;21106;52.240;20.902;2023-09-30T05:03:52;14.80;;;6.80;;
34892;SDS011;21106;52.240;20.902;2023-09-30T05:08:59;13.50;;;7.00;;
34892;SDS011;21106;52.240;20.902;2023-09-30T05:14:06;12.10;;;6.80;;
34892;SDS011;21106;52.240;20.902;2023-09-30T05:19:12;14.70;;;7.00;;
34892;SDS011;21106;52.240;20.902;2023-09-30T05:24:18;18.10;;;6.90;;
34892;SDS011;21106;52.240;20.902;2023-09-30T05:29:25;18.10;;;8.20;;
34892;SDS011;21106;52.240;20.902;2023-09-30T05:34:30;11.90;;;6.80;;
34892;SDS011;21106;52.240;20.902;2023-09-30T05:39:36;20.70;;;6.90;;
34892;SDS011;21106;52.240;20.902;2023-09-30T05:44:42;19.50;;;6.70;;
34892;SDS011;21106;52.240;20.902;2023-09-30T05:49:49;18.80;;;6.90;;
34892;SDS011;21106;52.240;20.902;2023-09-30T05:54:55;13.30;;;6.30;;
34892;SDS011;21106;52.240;20.902;2023-09-30T06:00:01;13.00;;;6.30;;
34892;SDS011;21106;52.240;20.902;2023-09-30T06:05:06;14.10;;;6.20;;
34892;SDS011;21106;52.240;20.902;2023-09-30T06:10:13;12.30;;;6.40;;
34892;SDS011;21106;52.240;20.902;2023-09-30T06:15:24;9.30;;;5.70;;
34892;SDS011;21106;52.240;20.902;2023-09-30T06:20:33;8.40;;;5.50;;
34892;SDS011;21106;52.240;20.902;2023-09-30T06:25:40;7.20;;;6.10;;
34892;SDS011;21106;52.240;20.902;2023-09-30T06:30:46;16.40;;;9.10;;
34892;SDS011;21106;52.240;20.902;2023-09-30T06:35:53;36.40;;;16.40;;
34892;SDS011;21106;52.240;20.902;2023-09-30T06:40:59;17.20;;;9.30;;
34892;SDS011;21106;52.240;20.902;2023-09-30T06:46:07;16.20;;;10.20;;
34892;SDS011;21106;52.240;20.902;2023-09-30T06:51:14;14.20;;;8.20;;
34892;SDS011;21106;52.240;20.902;2023-09-30T06:56:21;16.20;;;6.80;;
34892;SDS011;21106;52.240;20.902;2023-09-30T07:01:27;12.70;;;7.30;;
34892;SDS011;21106;52.240;20.902;2023-09-30T07:06:33;12.20;;;7.70;;
34892;SDS011;21106;52.240;20.902;2023-09-30T07:11:40;9.80;;;6.90;;
34892;SDS011;21106;52.240;20.902;2023-09-30T07:16:46;12.00;;;7.60;;
34892;SDS011;21106;52.240;20.902;2023-09-30T07:21:52;11.30;;;7.20;;
34892;SDS011;21106;52.240;20.902;2023-09-30T07:26:59;28.00;;;13.90;;
34892;SDS011;21106;52.240;20.902;2023-09-30T07:32:08;34.10;;;13.40;;
34892;SDS011;21106;52.240;20.902;2023-09-30T07:37:15;33.80;;;14.40;;
34892;SDS011;21106;52.240;20.902;2023-09-30T07:42:22;17.90;;;10.40;;
34892;SDS011;21106;52.240;20.902;2023-09-30T07:47:29;20.00;;;10.70;;
34892;SDS011;21106;52.240;20.902;2023-09-30T07:52:36;16.90;;;9.70;;
34892;SDS011;21106;52.240;20.902;2023-09-30T07:57:43;19.30;;;10.80;;
34892;SDS011;21106;52.240;20.902;2023-09-30T08:02:49;21.60;;;13.20;;
34892;SDS011;21106;52.240;20.902;2023-09-30T08:07:56;28.60;;;14.60;;
34892;SDS011;21106;52.240;20.902;2023-09-30T08:13:02;21.40;;;12.10;;
34892;SDS011;21106;52.240;20.902;2023-09-30T08:18:08;20.70;;;11.00;;
34892;SDS011;21106;52.240;20.902;2023-09-30T08:23:14;17.60;;;11.10;;
34892;SDS011;21106;52.240;20.902;2023-09-30T08:28:21;15.70;;;10.60;;
34892;SDS011;21106;52.240;20.902;2023-09-30T08:33:27;16.60;;;10.60;;
34892;SDS011;21106;52.240;20.902;2023-09-30T08:38:36;16.30;;;10.90;;
34892;SDS011;21106;52.240;20.902;2023-09-30T08:43:42;15.70;;;11.30;;
34892;SDS011;21106;52.240;20.902;2023-09-30T08:48:49;21.00;;;10.50;;
34892;SDS011;21106;52.240;20.902;2023-09-30T08:53:57;15.80;;;9.90;;
34892;SDS011;21106;52.240;20.902;2023-09-30T08:59:11;19.30;;;11.80;;
34892;SDS011;21106;52.240;20.902;2023-09-30T09:04:38;14.90;;;10.30;;
34892;SDS011;21106;52.240;20.902;2023-09-30T09:10:31;15.70;;;10.00;;
34892;SDS011;21106;52.240;20.902;2023-09-30T09:15:36;18.60;;;10.70;;
34892;SDS011;21106;52.240;20.902;2023-09-30T09:20:43;16.60;;;10.80;;
34892;SDS011;21106;52.240;20.902;2023-09-30T09:25:49;20.90;;;12.40;;
34892;SDS011;21106;52.240;20.902;2023-09-30T09:30:55;19.20;;;11.20;;
34892;SDS011;21106;52.240;20.902;2023-09-30T09:36:02;16.80;;;11.00;;
34892;SDS011;21106;52.240;20.902;2023-09-30T09:41:08;14.50;;;10.70;;
34892;SDS011;21106;52.240;20.902;2023-09-30T09:46:14;14.90;;;11.30;;
34892;SDS011;21106;52.240;20.902;2023-09-30T09:51:22;17.30;;;11.40;;
34892;SDS011;21106;52.240;20.902;2023-09-30T09:56:28;19.00;;;10.60;;
34892;SDS011;21106;52.240;20.902;2023-09-30T10:01:35;17.20;;;11.00;;
34892;SDS011;21106;52.240;20.902;2023-09-30T10:06:41;14.50;;;9.80;;
34892;SDS011;21106;52.240;20.902;2023-09-30T10:11:48;12.10;;;8.30;;
34892;SDS011;21106;52.240;20.902;2023-09-30T10:16:54;14.20;;;6.90;;
34892;SDS011;21106;52.240;20.902;2023-09-30T10:43:29;5.10;;;2.90;;
34892;SDS011;21106;52.240;20.902;2023-09-30T10:48:36;6.50;;;2.70;;
34892;SDS011;21106;52.240;20.902;2023-09-30T10:53:51;5.00;;;2.00;;
34892;SDS011;21106;52.240;20.902;2023-09-30T10:58:57;4.50;;;1.90;;
34892;SDS011;21106;52.240;20.902;2023-09-30T11:04:03;4.00;;;1.50;;
34892;SDS011;21106;52.240;20.902;2023-09-30T11:09:15;3.50;;;1.60;;
34892;SDS011;21106;52.240;20.902;2023-09-30T11:14:28;10.50;;;1.50;;
34892;SDS011;21106;52.240;20.902;2023-09-30T11:19:36;6.20;;;1.90;;
34892;SDS011;21106;52.240;20.902;2023-09-30T11:24:43;6.50;;;2.10;;
34892;SDS011;21106;52.240;20.902;2023-09-30T11:29:49;6.30;;;1.60;;
34892;SDS011;21106;52.240;20.902;2023-09-30T11:34:55;9.30;;;1.80;;
34892;SDS011;21106;52.240;20.902;2023-09-30T11:40:08;5.90;;;1.70;;
34892;SDS011;21106;52.240;20.902;2023-09-30T11:45:29;8.10;;;2.50;;
34892;SDS011;21106;52.240;20.902;2023-09-30T11:50:47;7.00;;;2.30;;
34892;SDS011;21106;52.240;20.902;2023-09-30T11:56:02;6.30;;;2.20;;
34892;SDS011;21106;52.240;20.902;2023-09-30T12:01:08;9.70;;;2.60;;
34892;SDS011;21106;52.240;20.902;2023-09-30T12:06:17;7.90;;;2.40;;
34892;SDS011;21106;52.240;20.902;2023-09-30T12:11:24;7.30;;;2.30;;
34892;SDS011;21106;52.240;20.902;2023-09-30T12:16:31;8.10;;;2.70;;
34892;SDS011;21106;52.240;20.902;2023-09-30T12:21:38;9.30;;;2.70;;
34892;SDS011;21106;52.240;20.902;2023-09-30T12:26:45;7.90;;;2.50;;
34892;SDS011;21106;52.240;20.902;2023-09-30T12:31:54;9.90;;;3.40;;
34892;SDS011;21106;52.240;20.902;2023-09-30T12:37:00;11.90;;;3.20;;
34892;SDS011;21106;52.240;20.902;2023-09-30T12:42:06;9.40;;;3.80;;
34892;SDS011;21106;52.240;20.902;2023-09-30T12:47:16;10.50;;;3.70;;
34892;SDS011;21106;52.240;20.902;2023-09-30T12:52:27;12.30;;;3.00;;
34892;SDS011;21106;52.240;20.902;2023-09-30T12:57:33;9.40;;;3.00;;
34892;SDS011;21106;52.240;20.902;2023-09-30T13:02:41;8.70;;;2.40;;
34892;SDS011;21106;52.240;20.902;2023-09-30T13:07:48;11.20;;;2.90;;
34892;SDS011;21106;52.240;20.902;2023-09-30T13:12:55;10.70;;;2.60;;
34892;SDS011;21106;52.240;20.902;2023-09-30T13:18:05;9.50;;;2.80;;
34892;SDS011;21106;52.240;20.902;2023-09-30T13:23:12;6.00;;;2.10;;
34892;SDS011;21106;52.240;20.902;2023-09-30T13:28:18;7.20;;;2.30;;
34892;SDS011;21106;52.240;20.902;2023-09-30T13:33:25;7.90;;;1.80;;
34892;SDS011;21106;52.240;20.902;2023-09-30T13:38:31;7.40;;;2.30;;
34892;SDS011;21106;52.240;20.902;2023-09-30T13:43:37;7.50;;;2.40;;
34892;SDS011;21106;52.240;20.902;2023-09-30T13:48:48;5.30;;;1.90;;
34892;SDS011;21106;52.240;20.902;2023-09-30T13:53:59;8.20;;;2.30;;
34892;SDS011;21106;52.240;20.902;2023-09-30T13:59:05;9.40;;;3.10;;
34892;SDS011;21106;52.240;20.902;2023-09-30T14:04:11;6.40;;;2.30;;
34892;SDS011;21106;52.240;20.902;2023-09-30T14:09:20;6.40;;;2.40;;
34892;SDS011;21106;52.240;20.902;2023-09-30T14:14:31;6.50;;;2.20;;
34892;SDS011;21106;52.240;20.902;2023-09-30T14:19:37;8.90;;;2.90;;
34892;SDS011;21106;52.240;20.902;2023-09-30T14:24:44;7.40;;;2.60;;
34892;SDS011;21106;52.240;20.902;2023-09-30T14:29:51;8.30;;;2.70;;
34892;SDS011;21106;52.240;20.902;2023-09-30T14:40:07;9.00;;;2.50;;
34892;SDS011;21106;52.240;20.902;2023-09-30T14:45:16;9.50;;;2.80;;
34892;SDS011;21106;52.240;20.902;2023-09-30T14:50:22;10.10;;;2.20;;
34892;SDS011;21106;52.240;20.902;2023-09-30T14:55:33;9.30;;;3.00;;
34892;SDS011;21106;52.240;20.902;2023-09-30T15:00:40;7.90;;;3.60;;
34892;SDS011;21106;52.240;20.902;2023-09-30T15:05:47;8.70;;;2.60;;
34892;SDS011;21106;52.240;20.902;2023-09-30T15:10:54;9.10;;;2.40;;
34892;SDS011;21106;52.240;20.902;2023-09-30T15:16:02;8.30;;;2.90;;
34892;SDS011;21106;52.240;20.902;2023-09-30T15:21:09;9.70;;;2.70;;
34892;SDS011;21106;52.240;20.902;2023-09-30T15:26:15;11.40;;;3.00;;
34892;SDS011;21106;52.240;20.902;2023-09-30T15:31:27;7.30;;;2.50;;
34892;SDS011;21106;52.240;20.902;2023-09-30T15:36:35;12.20;;;3.20;;
34892;SDS011;21106;52.240;20.902;2023-09-30T15:42:01;11.80;;;2.80;;
34892;SDS011;21106;52.240;20.902;2023-09-30T15:47:21;8.90;;;3.00;;
34892;SDS011;21106;52.240;20.902;2023-09-30T15:52:32;10.70;;;3.40;;
34892;SDS011;21106;52.240;20.902;2023-09-30T15:57:38;11.80;;;3.40;;
34892;SDS011;21106;52.240;20.902;2023-09-30T16:02:48;11.00;;;3.40;;
34892;SDS011;21106;52.240;20.902;2023-09-30T16:07:54;10.70;;;3.50;;
34892;SDS011;21106;52.240;20.902;2023-09-30T16:13:02;10.10;;;3.80;;
34892;SDS011;21106;52.240;20.902;2023-09-30T16:18:09;10.60;;;3.70;;
34892;SDS011;21106;52.240;20.902;2023-09-30T16:23:16;11.60;;;3.80;;
34892;SDS011;21106;52.240;20.902;2023-09-30T16:28:24;16.10;;;4.80;;
34892;SDS011;21106;52.240;20.902;2023-09-30T16:33:30;10.10;;;3.90;;
34892;SDS011;21106;52.240;20.902;2023-09-30T16:38:38;17.80;;;3.70;;
34892;SDS011;21106;52.240;20.902;2023-09-30T16:43:44;12.70;;;4.50;;
34892;SDS011;21106;52.240;20.902;2023-09-30T16:48:50;11.50;;;3.80;;
34892;SDS011;21106;52.240;20.902;2023-09-30T16:53:56;11.70;;;3.90;;
34892;SDS011;21106;52.240;20.902;2023-09-30T16:59:03;10.80;;;4.80;;
34892;SDS011;21106;52.240;20.902;2023-09-30T17:04:10;14.50;;;5.40;;
34892;SDS011;21106;52.240;20.902;2023-09-30T17:09:19;15.40;;;4.90;;
34892;SDS011;21106;52.240;20.902;2023-09-30T17:14:25;13.30;;;5.00;;
34892;SDS011;21106;52.240;20.902;2023-09-30T17:19:32;19.00;;;5.20;;
34892;SDS011;21106;52.240;20.902;2023-09-30T17:24:38;14.60;;;5.50;;
34892;SDS011;21106;52.240;20.902;2023-09-30T17:29:44;16.50;;;6.90;;
34892;SDS011;21106;52.240;20.902;2023-09-30T17:34:51;17.20;;;6.60;;
34892;SDS011;21106;52.240;20.902;2023-09-30T17:40:01;17.60;;;6.50;;
34892;SDS011;21106;52.240;20.902;2023-09-30T17:45:07;17.10;;;6.20;;
34892;SDS011;21106;52.240;20.902;2023-09-30T17:50:15;11.80;;;5.00;;
34892;SDS011;21106;52.240;20.902;2023-09-30T17:55:22;14.10;;;4.80;;
34892;SDS011;21106;52.240;20.902;2023-09-30T18:00:29;17.50;;;7.00;;
34892;SDS011;21106;52.240;20.902;2023-09-30T18:05:35;15.80;;;6.70;;
34892;SDS011;21106;52.240;20.902;2023-09-30T18:10:42;13.70;;;6.00;;
34892;SDS011;21106;52.240;20.902;2023-09-30T18:15:48;16.40;;;6.50;;
34892;SDS011;21106;52.240;20.902;2023-09-30T18:20:55;13.80;;;5.40;;
34892;SDS011;21106;52.240;20.902;2023-09-30T18:26:01;17.20;;;5.00;;
34892;SDS011;21106;52.240;20.902;2023-09-30T18:31:07;16.70;;;5.10;;
34892;SDS011;21106;52.240;20.902;2023-09-30T18:36:14;12.40;;;5.50;;
34892;SDS011;21106;52.240;20.902;2023-09-30T18:41:20;12.50;;;4.70;;
34892;SDS011;21106;52.240;20.902;2023-09-30T18:46:26;12.80;;;5.40;;
34892;SDS011;21106;52.240;20.902;2023-09-30T18:51:34;11.20;;;4.70;;
34892;SDS011;21106;52.240;20.902;2023-09-30T18:56:43;11.40;;;4.20;;
34892;SDS011;21106;52.240;20.902;2023-09-30T19:01:50;15.10;;;4.50;;
34892;SDS011;21106;52.240;20.902;2023-09-30T19:06:58;11.00;;;4.20;;
34892;SDS011;21106;52.240;20.902;2023-09-30T19:12:05;10.70;;;4.00;;
34892;SDS011;21106;52.240;20.902;2023-09-30T19:17:11;13.80;;;4.10;;
34892;SDS011;21106;52.240;20.902;2023-09-30T19:22:18;14.80;;;4.00;;
34892;SDS011;21106;52.240;20.902;2023-09-30T19:27:25;14.20;;;4.10;;
34892;SDS011;21106;52.240;20.902;2023-09-30T19:32:32;13.40;;;4.30;;
34892;SDS011;21106;52.240;20.902;2023-09-30T19:37:38;9.00;;;3.80;;
34892;SDS011;21106;52.240;20.902;2023-09-30T19:42:45;15.40;;;4.40;;
34892;SDS011;21106;52.240;20.902;2023-09-30T19:47:51;11.70;;;4.10;;
34892;SDS011;21106;52.240;20.902;2023-09-30T19:52:58;14.90;;;4.70;;
34892;SDS011;21106;52.240;20.902;2023-09-30T19:58:07;12.50;;;4.20;;
34892;SDS011;21106;52.240;20.902;2023-09-30T20:03:21;13.40;;;4.50;;
34892;SDS011;21106;52.240;20.902;2023-09-30T20:08:30;12.90;;;4.60;;
34892;SDS011;21106;52.240;20.902;2023-09-30T20:13:36;13.00;;;4.10;;
34892;SDS011;21106;52.240;20.902;2023-09-30T20:18:43;9.00;;;3.90;;
34892;SDS011;21106;52.240;20.902;2023-09-30T20:23:51;15.60;;;4.60;;
34892;SDS011;21106;52.240;20.902;2023-09-30T20:28:59;13.20;;;4.00;;
34892;SDS011;21106;52.240;20.902;2023-09-30T20:34:06;13.40;;;4.50;;
34892;SDS011;21106;52.240;20.902;2023-09-30T20:39:12;11.40;;;3.80;;
34892;SDS011;21106;52.240;20.902;2023-09-30T20:44:19;10.80;;;4.30;;
34892;SDS011;21106;52.240;20.902;2023-09-30T20:49:25;13.50;;;4.50;;
34892;SDS011;21106;52.240;20.902;2023-09-30T20:54:33;12.70;;;4.00;;
34892;SDS011;21106;52.240;20.902;2023-09-30T20:59:40;13.40;;;4.40;;
34892;SDS011;21106;52.240;20.902;2023-09-30T21:04:47;11.20;;;3.80;;
34892;SDS011;21106;52.240;20.902;2023-09-30T21:09:53;12.80;;;4.80;;
34892;SDS011;21106;52.240;20.902;2023-09-30T21:15:02;15.20;;;4.30;;
34892;SDS011;21106;52.240;20.902;2023-09-30T21:20:10;9.80;;;3.90;;
34892;SDS011;21106;52.240;20.902;2023-09-30T21:25:20;13.60;;;5.00;;
34892;SDS011;21106;52.240;20.902;2023-09-30T21:30:27;13.60;;;4.80;;
34892;SDS011;21106;52.240;20.902;2023-09-30T21:35:35;15.50;;;4.20;;
34892;SDS011;21106;52.240;20.902;2023-09-30T21:40:41;14.30;;;5.60;;
34892;SDS011;21106;52.240;20.902;2023-09-30T21:45:55;13.30;;;4.60;;
34892;SDS011;21106;52.240;20.902;2023-09-30T21:51:06;16.70;;;5.60;;
34892;SDS011;21106;52.240;20.902;2023-09-30T21:56:13;16.80;;;6.10;;
34892;SDS011;21106;52.240;20.902;2023-09-30T22:01:20;17.30;;;4.70;;
34892;SDS011;21106;52.240;20.902;2023-09-30T22:06:27;12.60;;;4.90;;
34892;SDS011;21106;52.240;20.902;2023-09-30T22:11:33;14.60;;;4.40;;
34892;SDS011;21106;52.240;20.902;2023-09-30T22:16:44;14.60;;;4.80;;
34892;SDS011;21106;52.240;20.902;2023-09-30T22:21:52;14.30;;;4.50;;
34892;SDS011;21106;52.240;20.902;2023-09-30T22:26:59;11.40;;;4.30;;
34892;SDS011;21106;52.240;20.902;2023-09-30T22:32:07;13.30;;;4.30;;
34892;SDS011;21106;52.240;20.902;2023-09-30T22:37:20;12.60;;;4.20;;
34892;SDS011;21106;52.240;20.902;2023-09-30T22:42:26;17.00;;;4.20;;
34892;SDS011;21106;52.240;20.902;2023-09-30T22:47:44;12.70;;;4.10;;
34892;SDS011;21106;52.240;20.902;2023-09-30T22:52:50;10.60;;;4.30;;
34892;SDS011;21106;52.240;20.902;2023-09-30T22:57:58;15.70;;;5.00;;
34892;SDS011;21106;52.240;20.902;2023-09-30T23:03:05;16.90;;;4.50;;
34892;SDS011;21106;52.240;20.902;2023-09-30T23:08:15;11.40;;;4.70;;
34892;SDS011;21106;52.240;20.902;2023-09-30T23:13:22;11.90;;;4.60;;
34892;SDS011;21106;52.240;20.902;2023-09-30T23:18:29;13.70;;;5.20;;
34892;SDS011;21106;52.240;20.902;2023-09-30T23:23:35;16.00;;;4.90;;
34892;SDS011;21106;52.240;20.902;2023-09-30T23:28:41;13.30;;;4.80;;
34892;SDS011;21106;52.240;20.902;2023-09-30T23:33:48;13.70;;;4.70;;
34892;SDS011;21106;52.240;20.902;2023-09-30T23:38:54;16.10;;;4.30;;
34892;SDS011;21106;52.240;20.902;2023-09-30T23:44:00;15.20;;;5.50;;
34892;SDS011;21106;52.240;20.902;2023-09-30T23:49:11;14.70;;;4.50;;
34892;SDS011;21106;52.240;20.902;2023-09-30T23:54:18;13.40;;;5.00;;
34892;SDS011;21106;52.240;20.902;2023-09-30T23:59:26;14.70;;;4.90;;
